sensor_id;sensor_type;location;lat;lon;timestamp;pressure;altitude;pressure_sealevel;temperature;humidity
61026;BME280;46911;32.650;-16.902;2022-08-07T00:01:19;101848.06;;;22.15;74.02
61026;BME280;46911;32.650;-16.902;2022-08-07T00:03:25;101843.63;;;22.14;74.04
61026;BME280;46911;32.650;-16.902;2022-08-07T00:05:27;101849.06;;;22.14;73.85
61026;BME280;46911;32.650;-16.902;2022-08-07T00:07:30;101847.31;;;22.22;73.50
61026;BME280;46911;32.650;-16.902;2022-08-07T00:09:34;101833.00;;;22.02;73.59
61026;BME280;46911;32.650;-16.902;2022-08-07T00:11:35;101845.25;;;22.06;74.15
61026;BME280;46911;32.650;-16.902;2022-08-07T00:13:36;101844.94;;;22.10;74.51
61026;BME280;46911;32.650;-16.902;2022-08-07T00:15:37;101838.94;;;22.06;74.53
61026;BME280;46911;32.650;-16.902;2022-08-07T00:17:38;101839.50;;;22.10;74.36
61026;BME280;46911;32.650;-16.902;2022-08-07T00:19:42;101833.69;;;22.04;74.60
61026;BME280;46911;32.650;-16.902;2022-08-07T00:21:42;101835.41;;;22.05;74.59
61026;BME280;46911;32.650;-16.902;2022-08-07T00:23:46;101809.63;;;21.92;74.14
61026;BME280;46911;32.650;-16.902;2022-08-07T00:25:48;101831.84;;;22.05;74.33
61026;BME280;46911;32.650;-16.902;2022-08-07T00:27:49;101809.63;;;21.92;74.47
61026;BME280;46911;32.650;-16.902;2022-08-07T00:29:50;101823.53;;;22.06;74.14
61026;BME280;46911;32.650;-16.902;2022-08-07T00:31:52;101823.97;;;22.02;74.31
61026;BME280;46911;32.650;-16.902;2022-08-07T00:33:53;101812.16;;;21.93;74.58
61026;BME280;46911;32.650;-16.902;2022-08-07T00:35:57;101802.72;;;21.97;74.57
61026;BME280;46911;32.650;-16.902;2022-08-07T00:37:59;101814.97;;;22.01;74.57
61026;BME280;46911;32.650;-16.902;2022-08-07T00:40:00;101831.44;;;22.00;74.13
61026;BME280;46911;32.650;-16.902;2022-08-07T00:42:01;101829.47;;;21.92;74.84
61026;BME280;46911;32.650;-16.902;2022-08-07T00:44:03;101814.50;;;21.88;74.86
61026;BME280;46911;32.650;-16.902;2022-08-07T00:46:07;101814.97;;;21.83;75.04
61026;BME280;46911;32.650;-16.902;2022-08-07T00:48:13;101826.75;;;21.92;75.03
61026;BME280;46911;32.650;-16.902;2022-08-07T00:50:20;101823.19;;;21.92;75.16
61026;BME280;46911;32.650;-16.902;2022-08-07T00:52:23;101805.09;;;21.82;73.89
61026;BME280;46911;32.650;-16.902;2022-08-07T00:54:26;101806.75;;;21.93;73.83
61026;BME280;46911;32.650;-16.902;2022-08-07T00:56:27;101824.03;;;21.92;73.84
61026;BME280;46911;32.650;-16.902;2022-08-07T00:58:33;101830.88;;;21.96;73.45
61026;BME280;46911;32.650;-16.902;2022-08-07T01:00:39;101816.47;;;21.86;72.96
61026;BME280;46911;32.650;-16.902;2022-08-07T01:02:44;101791.66;;;21.81;73.38
61026;BME280;46911;32.650;-16.902;2022-08-07T01:04:47;101811.78;;;21.88;72.99
61026;BME280;46911;32.650;-16.902;2022-08-07T01:06:51;101804.78;;;21.85;72.72
61026;BME280;46911;32.650;-16.902;2022-08-07T01:08:54;101786.03;;;21.64;72.71
61026;BME280;46911;32.650;-16.902;2022-08-07T01:10:58;101781.75;;;21.62;72.86
61026;BME280;46911;32.650;-16.902;2022-08-07T01:12:58;101795.13;;;21.73;72.59
61026;BME280;46911;32.650;-16.902;2022-08-07T01:15:01;101793.97;;;21.76;72.13
61026;BME280;46911;32.650;-16.902;2022-08-07T01:17:03;101794.50;;;21.79;72.09
61026;BME280;46911;32.650;-16.902;2022-08-07T01:19:05;101790.94;;;21.79;72.01
61026;BME280;46911;32.650;-16.902;2022-08-07T01:21:18;101789.38;;;21.76;72.04
61026;BME280;46911;32.650;-16.902;2022-08-07T01:23:24;101780.31;;;21.67;71.31
61026;BME280;46911;32.650;-16.902;2022-08-07T01:25:28;101791.25;;;21.76;71.34
61026;BME280;46911;32.650;-16.902;2022-08-07T01:27:29;101777.88;;;21.64;71.26
61026;BME280;46911;32.650;-16.902;2022-08-07T01:29:33;101789.38;;;21.76;71.50
61026;BME280;46911;32.650;-16.902;2022-08-07T01:31:37;101789.38;;;21.76;71.61
61026;BME280;46911;32.650;-16.902;2022-08-07T01:33:39;101777.06;;;21.82;71.31
61026;BME280;46911;32.650;-16.902;2022-08-07T01:35:41;101784.81;;;21.77;70.88
61026;BME280;46911;32.650;-16.902;2022-08-07T01:37:47;101783.66;;;21.79;71.30
61026;BME280;46911;32.650;-16.902;2022-08-07T01:39:48;101762.84;;;21.70;70.92
61026;BME280;46911;32.650;-16.902;2022-08-07T01:42:00;101776.78;;;21.85;70.55
61026;BME280;46911;32.650;-16.902;2022-08-07T01:44:06;101780.66;;;21.82;70.33
61026;BME280;46911;32.650;-16.902;2022-08-07T01:46:11;101764.38;;;21.72;70.26
61026;BME280;46911;32.650;-16.902;2022-08-07T01:48:17;101767.81;;;21.74;70.23
61026;BME280;46911;32.650;-16.902;2022-08-07T01:50:19;101770.38;;;21.76;70.44
61026;BME280;46911;32.650;-16.902;2022-08-07T01:52:24;101767.09;;;21.72;70.37
61026;BME280;46911;32.650;-16.902;2022-08-07T01:54:27;101763.88;;;21.69;70.54
61026;BME280;46911;32.650;-16.902;2022-08-07T01:56:39;101761.69;;;21.72;70.25
61026;BME280;46911;32.650;-16.902;2022-08-07T01:58:52;101750.44;;;21.67;70.50
61026;BME280;46911;32.650;-16.902;2022-08-07T02:01:00;101769.22;;;21.79;70.33
61026;BME280;46911;32.650;-16.902;2022-08-07T02:03:11;101740.78;;;21.55;70.47
61026;BME280;46911;32.650;-16.902;2022-08-07T02:05:16;101767.72;;;21.66;70.47
61026;BME280;46911;32.650;-16.902;2022-08-07T02:07:28;101750.81;;;21.72;69.81
61026;BME280;46911;32.650;-16.902;2022-08-07T02:09:33;101768.22;;;21.80;70.27
61026;BME280;46911;32.650;-16.902;2022-08-07T02:11:37;101757.38;;;21.80;70.62
61026;BME280;46911;32.650;-16.902;2022-08-07T02:13:45;101765.50;;;21.80;70.47
61026;BME280;46911;32.650;-16.902;2022-08-07T02:15:51;101761.06;;;21.79;70.76
61026;BME280;46911;32.650;-16.902;2022-08-07T02:17:56;101754.25;;;21.74;70.99
61026;BME280;46911;32.650;-16.902;2022-08-07T02:19:58;101747.25;;;21.72;71.03
61026;BME280;46911;32.650;-16.902;2022-08-07T02:22:05;101750.69;;;21.74;71.18
61026;BME280;46911;32.650;-16.902;2022-08-07T02:24:09;101747.97;;;21.74;71.48
61026;BME280;46911;32.650;-16.902;2022-08-07T02:26:16;101748.50;;;21.78;71.35
61026;BME280;46911;32.650;-16.902;2022-08-07T02:28:26;101738.34;;;21.80;71.49
61026;BME280;46911;32.650;-16.902;2022-08-07T02:30:36;101745.75;;;21.87;71.32
61026;BME280;46911;32.650;-16.902;2022-08-07T02:32:41;101720.94;;;21.72;71.27
61026;BME280;46911;32.650;-16.902;2022-08-07T02:34:44;101730.66;;;21.75;71.50
61026;BME280;46911;32.650;-16.902;2022-08-07T02:36:48;101726.00;;;21.67;71.35
61026;BME280;46911;32.650;-16.902;2022-08-07T02:38:52;101709.47;;;21.51;71.61
61026;BME280;46911;32.650;-16.902;2022-08-07T02:40:59;101709.22;;;21.44;71.33
61026;BME280;46911;32.650;-16.902;2022-08-07T02:43:04;101708.38;;;21.44;71.34
61026;BME280;46911;32.650;-16.902;2022-08-07T02:45:07;101722.81;;;21.54;71.67
61026;BME280;46911;32.650;-16.902;2022-08-07T02:47:11;101724.66;;;21.53;71.51
61026;BME280;46911;32.650;-16.902;2022-08-07T02:49:18;101713.91;;;21.52;71.59
61026;BME280;46911;32.650;-16.902;2022-08-07T02:51:20;101707.41;;;21.45;71.81
61026;BME280;46911;32.650;-16.902;2022-08-07T02:53:31;101719.81;;;21.47;71.85
61026;BME280;46911;32.650;-16.902;2022-08-07T02:55:36;101716.53;;;21.44;72.05
61026;BME280;46911;32.650;-16.902;2022-08-07T02:57:43;101720.09;;;21.44;71.69
61026;BME280;46911;32.650;-16.902;2022-08-07T02:59:51;101722.97;;;21.43;71.70
61026;BME280;46911;32.650;-16.902;2022-08-07T03:01:56;101727.53;;;21.42;72.30
61026;BME280;46911;32.650;-16.902;2022-08-07T03:04:00;101723.97;;;21.41;72.25
61026;BME280;46911;32.650;-16.902;2022-08-07T03:06:03;101723.28;;;21.39;72.44
61026;BME280;46911;32.650;-16.902;2022-08-07T03:08:11;101705.19;;;21.30;72.46
61026;BME280;46911;32.650;-16.902;2022-08-07T03:10:17;101696.72;;;21.33;72.49
61026;BME280;46911;32.650;-16.902;2022-08-07T03:12:19;101702.31;;;21.32;72.82
61026;BME280;46911;32.650;-16.902;2022-08-07T03:14:23;101714.41;;;21.37;72.60
61026;BME280;46911;32.650;-16.902;2022-08-07T03:16:24;101716.53;;;21.44;73.13
61026;BME280;46911;32.650;-16.902;2022-08-07T03:18:28;101692.00;;;21.35;72.87
61026;BME280;46911;32.650;-16.902;2022-08-07T03:20:31;101711.78;;;21.46;72.65
61026;BME280;46911;32.650;-16.902;2022-08-07T03:22:35;101699.25;;;21.45;72.44
61026;BME280;46911;32.650;-16.902;2022-08-07T03:24:37;101694.66;;;21.45;72.66
61026;BME280;46911;32.650;-16.902;2022-08-07T03:26:39;101704.63;;;21.54;72.57
61026;BME280;46911;32.650;-16.902;2022-08-07T03:28:42;101717.38;;;21.54;73.09
61026;BME280;46911;32.650;-16.902;2022-08-07T03:30:44;101707.91;;;21.58;72.50
61026;BME280;46911;32.650;-16.902;2022-08-07T03:32:47;101712.78;;;21.54;72.85
61026;BME280;46911;32.650;-16.902;2022-08-07T03:34:53;101696.97;;;21.40;72.59
61026;BME280;46911;32.650;-16.902;2022-08-07T03:36:58;101720.09;;;21.54;72.25
61026;BME280;46911;32.650;-16.902;2022-08-07T03:39:07;101713.91;;;21.52;72.33
61026;BME280;46911;32.650;-16.902;2022-08-07T03:41:13;101718.34;;;21.53;72.45
61026;BME280;46911;32.650;-16.902;2022-08-07T03:43:14;101698.22;;;21.46;72.32
61026;BME280;46911;32.650;-16.902;2022-08-07T03:45:24;101718.22;;;21.54;72.16
61026;BME280;46911;32.650;-16.902;2022-08-07T03:47:27;101707.16;;;21.38;72.33
61026;BME280;46911;32.650;-16.902;2022-08-07T03:49:29;101719.66;;;21.49;72.33
61026;BME280;46911;32.650;-16.902;2022-08-07T03:51:32;101714.38;;;21.47;72.21
61026;BME280;46911;32.650;-16.902;2022-08-07T03:53:37;101706.13;;;21.39;72.31
61026;BME280;46911;32.650;-16.902;2022-08-07T03:55:41;101699.84;;;21.38;71.83
61026;BME280;46911;32.650;-16.902;2022-08-07T03:57:43;101714.09;;;21.40;72.10
61026;BME280;46911;32.650;-16.902;2022-08-07T03:59:44;101732.91;;;21.52;72.06
61026;BME280;46911;32.650;-16.902;2022-08-07T04:01:46;101710.13;;;21.35;71.77
61026;BME280;46911;32.650;-16.902;2022-08-07T04:03:51;101720.16;;;21.34;71.87
61026;BME280;46911;32.650;-16.902;2022-08-07T04:05:52;101734.22;;;21.48;72.07
61026;BME280;46911;32.650;-16.902;2022-08-07T04:07:56;101726.00;;;21.39;71.92
61026;BME280;46911;32.650;-16.902;2022-08-07T04:09:59;101743.06;;;21.50;72.05
61026;BME280;46911;32.650;-16.902;2022-08-07T04:12:06;101733.72;;;21.34;72.33
61026;BME280;46911;32.650;-16.902;2022-08-07T04:14:12;101750.66;;;21.46;72.75
61026;BME280;46911;32.650;-16.902;2022-08-07T04:16:14;101752.91;;;21.51;73.18
61026;BME280;46911;32.650;-16.902;2022-08-07T04:18:15;101747.94;;;21.46;73.04
61026;BME280;46911;32.650;-16.902;2022-08-07T04:20:19;101753.06;;;21.49;72.97
61026;BME280;46911;32.650;-16.902;2022-08-07T04:22:22;101745.00;;;21.39;73.23
61026;BME280;46911;32.650;-16.902;2022-08-07T04:24:28;101740.25;;;21.41;73.61
61026;BME280;46911;32.650;-16.902;2022-08-07T04:26:33;101749.66;;;21.47;73.44
61026;BME280;46911;32.650;-16.902;2022-08-07T04:28:34;101746.09;;;21.47;73.29
61026;BME280;46911;32.650;-16.902;2022-08-07T04:30:41;101752.50;;;21.46;72.81
61026;BME280;46911;32.650;-16.902;2022-08-07T04:32:48;101740.97;;;21.44;72.40
61026;BME280;46911;32.650;-16.902;2022-08-07T04:34:53;101725.84;;;21.41;72.12
61026;BME280;46911;32.650;-16.902;2022-08-07T04:37:00;101737.25;;;21.45;71.96
61026;BME280;46911;32.650;-16.902;2022-08-07T04:39:03;101750.50;;;21.48;72.39
61026;BME280;46911;32.650;-16.902;2022-08-07T04:41:08;101731.25;;;21.41;72.11
61026;BME280;46911;32.650;-16.902;2022-08-07T04:43:18;101719.41;;;21.42;72.22
61026;BME280;46911;32.650;-16.902;2022-08-07T04:45:28;101739.94;;;21.54;72.27
61026;BME280;46911;32.650;-16.902;2022-08-07T04:47:58;101726.09;;;21.48;72.17
61026;BME280;46911;32.650;-16.902;2022-08-07T04:53:16;101732.34;;;21.48;72.06
61026;BME280;46911;32.650;-16.902;2022-08-07T04:57:22;101734.38;;;21.46;71.87
61026;BME280;46911;32.650;-16.902;2022-08-07T05:01:55;101735.53;;;21.44;71.44
61026;BME280;46911;32.650;-16.902;2022-08-07T05:04:13;101713.59;;;21.27;71.53
61026;BME280;46911;32.650;-16.902;2022-08-07T05:06:29;101725.84;;;21.41;71.49
61026;BME280;46911;32.650;-16.902;2022-08-07T05:08:45;101739.34;;;21.51;71.09
61026;BME280;46911;32.650;-16.902;2022-08-07T05:11:02;101744.78;;;21.51;71.19
61026;BME280;46911;32.650;-16.902;2022-08-07T05:13:19;101727.38;;;21.44;71.29
61026;BME280;46911;32.650;-16.902;2022-08-07T05:15:28;101735.19;;;21.56;71.01
61026;BME280;46911;32.650;-16.902;2022-08-07T05:17:34;101727.47;;;21.52;70.51
61026;BME280;46911;32.650;-16.902;2022-08-07T05:19:45;101733.75;;;21.52;70.60
61026;BME280;46911;32.650;-16.902;2022-08-07T05:21:52;101731.34;;;21.49;71.01
61026;BME280;46911;32.650;-16.902;2022-08-07T05:24:02;101724.19;;;21.30;70.76
61026;BME280;46911;32.650;-16.902;2022-08-07T05:26:09;101722.00;;;21.34;70.60
61026;BME280;46911;32.650;-16.902;2022-08-07T05:28:12;101725.31;;;21.28;71.13
61026;BME280;46911;32.650;-16.902;2022-08-07T05:30:15;101732.41;;;21.38;70.78
61026;BME280;46911;32.650;-16.902;2022-08-07T05:32:22;101748.53;;;21.40;70.94
61026;BME280;46911;32.650;-16.902;2022-08-07T05:34:27;101741.88;;;21.34;71.04
61026;BME280;46911;32.650;-16.902;2022-08-07T05:36:37;101746.66;;;21.40;69.92
61026;BME280;46911;32.650;-16.902;2022-08-07T05:38:42;101751.09;;;21.41;69.18
61026;BME280;46911;32.650;-16.902;2022-08-07T05:40:44;101729.75;;;21.29;69.07
61026;BME280;46911;32.650;-16.902;2022-08-07T05:42:48;101725.00;;;21.31;68.72
61026;BME280;46911;32.650;-16.902;2022-08-07T05:44:51;101740.16;;;21.33;68.60
61026;BME280;46911;32.650;-16.902;2022-08-07T05:46:57;101725.19;;;21.29;68.29
61026;BME280;46911;32.650;-16.902;2022-08-07T05:49:02;101725.06;;;21.21;68.47
61026;BME280;46911;32.650;-16.902;2022-08-07T05:51:08;101714.78;;;21.24;68.49
61026;BME280;46911;32.650;-16.902;2022-08-07T05:53:13;101727.22;;;21.17;68.73
61026;BME280;46911;32.650;-16.902;2022-08-07T05:55:15;101710.84;;;21.09;69.14
61026;BME280;46911;32.650;-16.902;2022-08-07T05:57:18;101721.84;;;21.07;69.27
61026;BME280;46911;32.650;-16.902;2022-08-07T05:59:24;101734.28;;;21.00;69.80
61026;BME280;46911;32.650;-16.902;2022-08-07T06:01:31;101734.59;;;20.97;69.74
61026;BME280;46911;32.650;-16.902;2022-08-07T06:03:35;101745.59;;;20.96;69.91
61026;BME280;46911;32.650;-16.902;2022-08-07T06:05:39;101712.66;;;20.81;70.06
61026;BME280;46911;32.650;-16.902;2022-08-07T06:07:43;101732.31;;;20.93;69.81
61026;BME280;46911;32.650;-16.902;2022-08-07T06:09:47;101738.91;;;20.90;70.02
61026;BME280;46911;32.650;-16.902;2022-08-07T06:11:48;101734.63;;;20.78;69.92
61026;BME280;46911;32.650;-16.902;2022-08-07T06:13:51;101754.03;;;20.83;69.62
61026;BME280;46911;32.650;-16.902;2022-08-07T06:15:53;101756.78;;;20.73;69.64
61026;BME280;46911;32.650;-16.902;2022-08-07T06:17:59;101766.47;;;20.76;69.86
61026;BME280;46911;32.650;-16.902;2022-08-07T06:20:01;101750.31;;;20.64;69.93
61026;BME280;46911;32.650;-16.902;2022-08-07T06:22:07;101776.31;;;20.77;69.45
61026;BME280;46911;32.650;-16.902;2022-08-07T06:24:08;101769.03;;;20.77;69.23
61026;BME280;46911;32.650;-16.902;2022-08-07T06:26:13;101791.56;;;20.87;68.88
61026;BME280;46911;32.650;-16.902;2022-08-07T06:28:16;101790.84;;;20.95;69.04
61026;BME280;46911;32.650;-16.902;2022-08-07T06:30:18;101790.84;;;20.95;68.03
61026;BME280;46911;32.650;-16.902;2022-08-07T06:32:19;101793.69;;;21.03;68.03
61026;BME280;46911;32.650;-16.902;2022-08-07T06:34:23;101774.97;;;21.00;67.94
61026;BME280;46911;32.650;-16.902;2022-08-07T06:36:25;101786.97;;;21.07;68.41
61026;BME280;46911;32.650;-16.902;2022-08-07T06:38:29;101793.91;;;21.20;68.63
61026;BME280;46911;32.650;-16.902;2022-08-07T06:40:40;101776.22;;;21.16;68.42
61026;BME280;46911;32.650;-16.902;2022-08-07T06:42:45;101794.13;;;21.36;68.35
61026;BME280;46911;32.650;-16.902;2022-08-07T06:44:58;101780.44;;;21.28;68.61
61026;BME280;46911;32.650;-16.902;2022-08-07T06:47:01;101798.97;;;21.43;68.87
61026;BME280;46911;32.650;-16.902;2022-08-07T06:49:03;101792.22;;;21.47;68.71
61026;BME280;46911;32.650;-16.902;2022-08-07T06:51:07;101801.78;;;21.51;68.67
61026;BME280;46911;32.650;-16.902;2022-08-07T06:53:12;101794.34;;;21.53;68.73
61026;BME280;46911;32.650;-16.902;2022-08-07T06:55:22;101774.94;;;21.48;68.89
61026;BME280;46911;32.650;-16.902;2022-08-07T06:57:31;101766.81;;;21.48;68.87
61026;BME280;46911;32.650;-16.902;2022-08-07T06:59:37;101764.94;;;21.58;68.75
61026;BME280;46911;32.650;-16.902;2022-08-07T07:01:41;101779.19;;;21.60;68.65
61026;BME280;46911;32.650;-16.902;2022-08-07T07:03:42;101781.50;;;21.55;68.79
61026;BME280;46911;32.650;-16.902;2022-08-07T07:05:44;101766.47;;;21.51;69.04
61026;BME280;46911;32.650;-16.902;2022-08-07T07:07:50;101765.38;;;21.44;69.43
61026;BME280;46911;32.650;-16.902;2022-08-07T07:09:52;101769.19;;;21.51;69.10
61026;BME280;46911;32.650;-16.902;2022-08-07T07:14:09;101792.19;;;21.56;69.90
61026;BME280;46911;32.650;-16.902;2022-08-07T07:16:16;101775.22;;;21.54;70.19
61026;BME280;46911;32.650;-16.902;2022-08-07T07:18:18;101795.50;;;21.50;70.30
61026;BME280;46911;32.650;-16.902;2022-08-07T07:20:26;101800.94;;;21.40;71.16
61026;BME280;46911;32.650;-16.902;2022-08-07T07:22:32;101803.66;;;21.40;71.04
61026;BME280;46911;32.650;-16.902;2022-08-07T07:24:37;101798.25;;;21.40;71.11
61026;BME280;46911;32.650;-16.902;2022-08-07T07:26:43;101797.50;;;21.48;70.80
61026;BME280;46911;32.650;-16.902;2022-08-07T07:28:56;101785.81;;;21.48;70.48
61026;BME280;46911;32.650;-16.902;2022-08-07T07:31:01;101805.09;;;21.54;70.41
61026;BME280;46911;32.650;-16.902;2022-08-07T07:33:04;101811.34;;;21.55;70.03
61026;BME280;46911;32.650;-16.902;2022-08-07T07:35:10;101808.38;;;21.58;70.09
61026;BME280;46911;32.650;-16.902;2022-08-07T07:37:12;101791.78;;;21.51;70.00
61026;BME280;46911;32.650;-16.902;2022-08-07T07:39:17;101802.63;;;21.61;69.65
61026;BME280;46911;32.650;-16.902;2022-08-07T07:41:23;101795.47;;;21.60;69.64
61026;BME280;46911;32.650;-16.902;2022-08-07T07:43:26;101793.47;;;21.62;69.44
61026;BME280;46911;32.650;-16.902;2022-08-07T07:45:29;101759.66;;;21.47;69.80
61026;BME280;46911;32.650;-16.902;2022-08-07T07:47:40;101801.88;;;21.69;68.96
61026;BME280;46911;32.650;-16.902;2022-08-07T07:49:44;101795.41;;;21.70;68.85
61026;BME280;46911;32.650;-16.902;2022-08-07T07:51:47;101779.56;;;21.37;69.22
61026;BME280;46911;32.650;-16.902;2022-08-07T07:53:52;101788.94;;;21.53;69.00
61026;BME280;46911;32.650;-16.902;2022-08-07T07:55:57;101790.38;;;21.57;68.64
61026;BME280;46911;32.650;-16.902;2022-08-07T07:58:04;101772.59;;;21.63;68.26
61026;BME280;46911;32.650;-16.902;2022-08-07T08:00:10;101792.34;;;21.83;68.14
61026;BME280;46911;32.650;-16.902;2022-08-07T08:02:20;101784.28;;;21.91;67.89
61026;BME280;46911;32.650;-16.902;2022-08-07T08:04:25;101787.16;;;21.89;67.90
61026;BME280;46911;32.650;-16.902;2022-08-07T08:06:30;101796.97;;;22.00;67.79
61026;BME280;46911;32.650;-16.902;2022-08-07T08:08:35;101780.25;;;21.95;67.13
61026;BME280;46911;32.650;-16.902;2022-08-07T08:10:38;101777.00;;;21.92;67.20
61026;BME280;46911;32.650;-16.902;2022-08-07T08:12:39;101790.91;;;22.06;67.16
61026;BME280;46911;32.650;-16.902;2022-08-07T08:14:42;101790.44;;;22.11;67.28
61026;BME280;46911;32.650;-16.902;2022-08-07T08:16:44;101786.41;;;22.15;66.93
61026;BME280;46911;32.650;-16.902;2022-08-07T08:18:47;101792.47;;;22.27;66.61
61026;BME280;46911;32.650;-16.902;2022-08-07T08:20:53;101794.19;;;22.28;66.69
61026;BME280;46911;32.650;-16.902;2022-08-07T08:22:58;101802.66;;;22.25;66.93
61026;BME280;46911;32.650;-16.902;2022-08-07T08:25:22;101783.41;;;22.18;66.74
61026;BME280;46911;32.650;-16.902;2022-08-07T08:27:47;101794.34;;;22.45;66.59
61026;BME280;46911;32.650;-16.902;2022-08-07T08:29:56;101828.34;;;22.85;65.42
61026;BME280;46911;32.650;-16.902;2022-08-07T08:32:02;101802.97;;;23.02;64.34
61026;BME280;46911;32.650;-16.902;2022-08-07T08:34:07;101808.00;;;23.15;64.34
61026;BME280;46911;32.650;-16.902;2022-08-07T08:36:10;101815.75;;;23.10;64.93
61026;BME280;46911;32.650;-16.902;2022-08-07T08:38:14;101811.81;;;23.04;65.05
61026;BME280;46911;32.650;-16.902;2022-08-07T08:40:26;101818.47;;;23.10;65.32
61026;BME280;46911;32.650;-16.902;2022-08-07T08:42:44;101824.09;;;23.27;65.44
61026;BME280;46911;32.650;-16.902;2022-08-07T08:44:53;101829.31;;;23.20;65.33
61026;BME280;46911;32.650;-16.902;2022-08-07T08:50:02;101842.09;;;23.54;64.03
61026;BME280;46911;32.650;-16.902;2022-08-07T08:52:22;101844.16;;;23.60;63.78
61026;BME280;46911;32.650;-16.902;2022-08-07T08:54:37;101839.84;;;23.84;63.19
61026;BME280;46911;32.650;-16.902;2022-08-07T08:56:43;101821.50;;;24.02;62.01
61026;BME280;46911;32.650;-16.902;2022-08-07T08:59:19;101828.50;;;23.97;62.32
61026;BME280;46911;32.650;-16.902;2022-08-07T09:01:45;101841.31;;;24.21;61.73
61026;BME280;46911;32.650;-16.902;2022-08-07T09:03:58;101831.75;;;24.09;61.90
61026;BME280;46911;32.650;-16.902;2022-08-07T09:11:00;101843.56;;;23.74;62.24
61026;BME280;46911;32.650;-16.902;2022-08-07T09:20:44;101858.56;;;23.79;62.54
61026;BME280;46911;32.650;-16.902;2022-08-07T09:23:08;101858.16;;;23.65;63.08
61026;BME280;46911;32.650;-16.902;2022-08-07T09:25:20;101844.44;;;23.49;63.61
61026;BME280;46911;32.650;-16.902;2022-08-07T09:32:06;101862.84;;;24.32;60.84
61026;BME280;46911;32.650;-16.902;2022-08-07T09:41:33;101864.44;;;24.76;59.96
61026;BME280;46911;32.650;-16.902;2022-08-07T09:46:40;101865.47;;;24.75;59.89
61026;BME280;46911;32.650;-16.902;2022-08-07T09:53:49;101869.53;;;25.20;58.19
61026;BME280;46911;32.650;-16.902;2022-08-07T09:56:54;101878.41;;;25.14;58.89
61026;BME280;46911;32.650;-16.902;2022-08-07T09:58:56;101883.16;;;25.29;58.48
61026;BME280;46911;32.650;-16.902;2022-08-07T10:06:12;101876.69;;;25.38;57.41
61026;BME280;46911;32.650;-16.902;2022-08-07T10:11:20;101855.06;;;26.16;54.49
61026;BME280;46911;32.650;-16.902;2022-08-07T10:16:00;101874.63;;;26.59;54.28
61026;BME280;46911;32.650;-16.902;2022-08-07T10:25:18;101880.06;;;26.36;54.43
61026;BME280;46911;32.650;-16.902;2022-08-07T10:30:15;101873.53;;;27.06;52.64
61026;BME280;46911;32.650;-16.902;2022-08-07T10:42:18;101876.47;;;27.58;50.91
61026;BME280;46911;32.650;-16.902;2022-08-07T10:44:33;101879.28;;;28.31;49.84
61026;BME280;46911;32.650;-16.902;2022-08-07T10:49:21;101877.59;;;27.79;50.36
61026;BME280;46911;32.650;-16.902;2022-08-07T10:51:37;101868.50;;;28.30;49.71
61026;BME280;46911;32.650;-16.902;2022-08-07T10:53:51;101867.22;;;29.19;47.25
61026;BME280;46911;32.650;-16.902;2022-08-07T11:01:24;101890.63;;;28.06;49.75
61026;BME280;46911;32.650;-16.902;2022-08-07T11:03:39;101874.75;;;28.82;47.01
61026;BME280;46911;32.650;-16.902;2022-08-07T11:08:05;101870.78;;;27.60;50.20
61026;BME280;46911;32.650;-16.902;2022-08-07T11:10:23;101875.41;;;28.84;47.65
61026;BME280;46911;32.650;-16.902;2022-08-07T11:12:33;101883.25;;;27.77;50.33
61026;BME280;46911;32.650;-16.902;2022-08-07T11:14:48;101869.44;;;27.85;49.82
61026;BME280;46911;32.650;-16.902;2022-08-07T11:17:18;101883.03;;;27.34;51.32
61026;BME280;46911;32.650;-16.902;2022-08-07T11:19:33;101881.28;;;27.56;50.48
61026;BME280;46911;32.650;-16.902;2022-08-07T11:21:44;101874.94;;;28.59;48.54
61026;BME280;46911;32.650;-16.902;2022-08-07T11:23:58;101874.06;;;28.15;49.32
61026;BME280;46911;32.650;-16.902;2022-08-07T11:26:25;101874.28;;;28.35;49.52
61026;BME280;46911;32.650;-16.902;2022-08-07T11:28:52;101862.53;;;27.89;50.07
61026;BME280;46911;32.650;-16.902;2022-08-07T11:31:05;101852.78;;;28.38;48.60
61026;BME280;46911;32.650;-16.902;2022-08-07T11:33:32;101864.78;;;27.86;49.81
61026;BME280;46911;32.650;-16.902;2022-08-07T11:42:53;101851.84;;;27.95;50.14
61026;BME280;46911;32.650;-16.902;2022-08-07T11:54:45;101857.75;;;25.84;56.15
61026;BME280;46911;32.650;-16.902;2022-08-07T12:06:21;101852.00;;;26.88;53.57
61026;BME280;46911;32.650;-16.902;2022-08-07T12:08:39;101832.38;;;27.30;51.48
61026;BME280;46911;32.650;-16.902;2022-08-07T12:10:54;101822.91;;;28.29;49.09
61026;BME280;46911;32.650;-16.902;2022-08-07T12:13:15;101830.28;;;28.50;48.65
61026;BME280;46911;32.650;-16.902;2022-08-07T12:15:23;101831.72;;;28.02;49.92
61026;BME280;46911;32.650;-16.902;2022-08-07T12:17:36;101827.41;;;27.78;50.78
61026;BME280;46911;32.650;-16.902;2022-08-07T12:19:48;101799.56;;;28.83;47.92
61026;BME280;46911;32.650;-16.902;2022-08-07T12:27:32;101827.97;;;30.09;45.16
61026;BME280;46911;32.650;-16.902;2022-08-07T12:29:50;101801.81;;;29.78;46.07
61026;BME280;46911;32.650;-16.902;2022-08-07T12:32:08;101824.72;;;29.15;47.25
61026;BME280;46911;32.650;-16.902;2022-08-07T12:34:11;101822.34;;;28.33;49.31
61026;BME280;46911;32.650;-16.902;2022-08-07T12:36:14;101808.88;;;28.38;49.32
61026;BME280;46911;32.650;-16.902;2022-08-07T12:38:18;101818.75;;;28.54;49.22
61026;BME280;46911;32.650;-16.902;2022-08-07T12:40:23;101820.72;;;29.46;47.21
61026;BME280;46911;32.650;-16.902;2022-08-07T12:42:26;101803.25;;;29.25;47.35
61026;BME280;46911;32.650;-16.902;2022-08-07T12:44:31;101813.97;;;29.48;46.63